Main page
METAR-TAF:

METAR-TAF

Airports :

Wick Airport

Wick, Scotland

latitude: 58-27N, longitude: 003-05W, elevation: 39 m

Current weather observation

The report was made 36 minutes ago, at 23:20 UTC
Wind 6 kt from the Southwest, varying between South/Southwest and West
Temperature 8°C
Humidity 76%
Pressure 1018 hPa
Visibility 10 km or more

METAR: EGPC 192320Z AUTO 23006KT 200V260 9999 FEW039/// BKN046/// 08/04 Q1018

Time: 23:56 (23:56 UTC)

Forecast

The report was made 1 hour and 0 minutes ago, at 22:56 UTC
Forecast valid from 20 at 00 UTC to 20 at 09 UTC
Wind 9 kt from the West/Southwest
Visibility 10 km or more
Scattered clouds at a height of 3000 ft

TAF: EGPC 192256Z 2000/2009 24009KT 9999 SCT030

Weather observations and forecasts of more than 4000 airports (METAR and TAF reports).

The available stations are represented by yellow and red dots on the map.

Hover mouse over dot to see the name of the station.

Then click to see weather observations and forecasts.

To change the map : click on the green buttons with a black cross to zoom in, on the green button with a dash to zoom out, or on the green arrows for adjacent maps.


METAR-TAF: